sensor_id;sensor_type;location;lat;lon;timestamp;P1;durP1;ratioP1;P2;durP2;ratioP2
18657;SDS011;9458;50.942;5.074;2022-07-29T00:00:59;4.57;;;1.90;;
18657;SDS011;9458;50.942;5.074;2022-07-29T00:03:27;5.30;;;1.40;;
18657;SDS011;9458;50.942;5.074;2022-07-29T00:05:55;3.95;;;1.48;;
18657;SDS011;9458;50.942;5.074;2022-07-29T00:08:22;2.15;;;1.67;;
18657;SDS011;9458;50.942;5.074;2022-07-29T00:10:52;2.88;;;1.30;;
18657;SDS011;9458;50.942;5.074;2022-07-29T00:13:19;3.38;;;1.60;;
18657;SDS011;9458;50.942;5.074;2022-07-29T00:15:47;2.75;;;1.98;;
18657;SDS011;9458;50.942;5.074;2022-07-29T00:18:18;2.55;;;1.50;;
18657;SDS011;9458;50.942;5.074;2022-07-29T00:20:45;2.55;;;1.70;;
18657;SDS011;9458;50.942;5.074;2022-07-29T00:23:13;1.95;;;1.50;;
18657;SDS011;9458;50.942;5.074;2022-07-29T00:25:43;4.03;;;1.60;;
18657;SDS011;9458;50.942;5.074;2022-07-29T00:28:11;2.55;;;1.45;;
18657;SDS011;9458;50.942;5.074;2022-07-29T00:30:41;4.88;;;1.88;;
18657;SDS011;9458;50.942;5.074;2022-07-29T00:33:09;2.80;;;1.67;;
18657;SDS011;9458;50.942;5.074;2022-07-29T00:35:39;7.57;;;2.10;;
18657;SDS011;9458;50.942;5.074;2022-07-29T00:38:12;5.40;;;1.90;;
18657;SDS011;9458;50.942;5.074;2022-07-29T00:40:41;2.00;;;1.48;;
18657;SDS011;9458;50.942;5.074;2022-07-29T00:43:11;3.30;;;1.65;;
18657;SDS011;9458;50.942;5.074;2022-07-29T00:45:40;1.52;;;1.42;;
18657;SDS011;9458;50.942;5.074;2022-07-29T00:48:09;3.55;;;1.45;;
18657;SDS011;9458;50.942;5.074;2022-07-29T00:50:40;2.63;;;1.92;;
18657;SDS011;9458;50.942;5.074;2022-07-29T00:53:08;2.13;;;1.50;;
18657;SDS011;9458;50.942;5.074;2022-07-29T00:55:38;1.67;;;1.58;;
18657;SDS011;9458;50.942;5.074;2022-07-29T00:58:06;2.60;;;2.08;;
18657;SDS011;9458;50.942;5.074;2022-07-29T01:00:34;4.60;;;1.90;;
18657;SDS011;9458;50.942;5.074;2022-07-29T01:03:03;3.22;;;1.65;;
18657;SDS011;9458;50.942;5.074;2022-07-29T01:05:30;1.90;;;1.80;;
18657;SDS011;9458;50.942;5.074;2022-07-29T01:08:00;2.63;;;1.40;;
18657;SDS011;9458;50.942;5.074;2022-07-29T01:10:29;3.17;;;1.40;;
18657;SDS011;9458;50.942;5.074;2022-07-29T01:12:58;1.63;;;1.50;;
18657;SDS011;9458;50.942;5.074;2022-07-29T01:15:27;3.25;;;1.83;;
18657;SDS011;9458;50.942;5.074;2022-07-29T01:17:58;3.38;;;1.70;;
18657;SDS011;9458;50.942;5.074;2022-07-29T01:20:32;2.33;;;1.42;;
18657;SDS011;9458;50.942;5.074;2022-07-29T01:26:22;2.85;;;2.00;;
18657;SDS011;9458;50.942;5.074;2022-07-29T01:29:04;3.67;;;1.95;;
18657;SDS011;9458;50.942;5.074;2022-07-29T01:31:38;2.88;;;1.80;;
18657;SDS011;9458;50.942;5.074;2022-07-29T01:34:17;2.28;;;1.67;;
18657;SDS011;9458;50.942;5.074;2022-07-29T01:36:51;1.77;;;1.67;;
18657;SDS011;9458;50.942;5.074;2022-07-29T01:39:26;4.35;;;1.88;;
18657;SDS011;9458;50.942;5.074;2022-07-29T01:41:58;2.67;;;1.80;;
18657;SDS011;9458;50.942;5.074;2022-07-29T01:44:33;2.55;;;1.42;;
18657;SDS011;9458;50.942;5.074;2022-07-29T01:47:05;3.33;;;1.65;;
18657;SDS011;9458;50.942;5.074;2022-07-29T01:49:39;3.80;;;1.90;;
18657;SDS011;9458;50.942;5.074;2022-07-29T01:52:13;2.75;;;1.88;;
18657;SDS011;9458;50.942;5.074;2022-07-29T01:54:49;1.75;;;1.65;;
18657;SDS011;9458;50.942;5.074;2022-07-29T01:57:21;2.75;;;2.08;;
18657;SDS011;9458;50.942;5.074;2022-07-29T01:59:56;2.63;;;1.70;;
18657;SDS011;9458;50.942;5.074;2022-07-29T02:02:26;2.85;;;2.08;;
18657;SDS011;9458;50.942;5.074;2022-07-29T02:04:55;4.35;;;1.70;;
18657;SDS011;9458;50.942;5.074;2022-07-29T02:07:25;1.90;;;1.80;;
18657;SDS011;9458;50.942;5.074;2022-07-29T02:09:56;3.75;;;2.20;;
18657;SDS011;9458;50.942;5.074;2022-07-29T02:12:26;2.47;;;2.00;;
18657;SDS011;9458;50.942;5.074;2022-07-29T02:14:57;2.05;;;1.80;;
18657;SDS011;9458;50.942;5.074;2022-07-29T02:17:29;2.58;;;1.80;;
18657;SDS011;9458;50.942;5.074;2022-07-29T02:20:02;3.30;;;2.00;;
18657;SDS011;9458;50.942;5.074;2022-07-29T02:22:33;1.92;;;1.80;;
18657;SDS011;9458;50.942;5.074;2022-07-29T02:25:04;2.13;;;1.92;;
18657;SDS011;9458;50.942;5.074;2022-07-29T02:27:33;3.05;;;2.00;;
18657;SDS011;9458;50.942;5.074;2022-07-29T02:30:05;3.30;;;1.90;;
18657;SDS011;9458;50.942;5.074;2022-07-29T02:32:35;1.98;;;1.77;;
18657;SDS011;9458;50.942;5.074;2022-07-29T02:35:05;3.60;;;1.95;;
18657;SDS011;9458;50.942;5.074;2022-07-29T02:37:35;5.47;;;2.20;;
18657;SDS011;9458;50.942;5.074;2022-07-29T02:40:04;2.92;;;2.00;;
18657;SDS011;9458;50.942;5.074;2022-07-29T02:42:36;3.50;;;1.92;;
18657;SDS011;9458;50.942;5.074;2022-07-29T02:45:08;3.40;;;2.03;;
18657;SDS011;9458;50.942;5.074;2022-07-29T02:47:38;5.68;;;2.60;;
18657;SDS011;9458;50.942;5.074;2022-07-29T02:50:11;3.08;;;2.30;;
18657;SDS011;9458;50.942;5.074;2022-07-29T02:52:43;4.25;;;2.38;;
18657;SDS011;9458;50.942;5.074;2022-07-29T02:55:15;2.58;;;2.15;;
18657;SDS011;9458;50.942;5.074;2022-07-29T02:57:47;4.43;;;2.40;;
18657;SDS011;9458;50.942;5.074;2022-07-29T03:00:24;3.10;;;2.17;;
18657;SDS011;9458;50.942;5.074;2022-07-29T03:02:59;3.20;;;2.00;;
18657;SDS011;9458;50.942;5.074;2022-07-29T03:05:38;2.88;;;2.05;;
18657;SDS011;9458;50.942;5.074;2022-07-29T03:08:16;3.55;;;2.00;;
18657;SDS011;9458;50.942;5.074;2022-07-29T03:10:53;3.42;;;2.30;;
18657;SDS011;9458;50.942;5.074;2022-07-29T03:13:22;2.40;;;1.90;;
18657;SDS011;9458;50.942;5.074;2022-07-29T03:15:52;3.80;;;2.38;;
18657;SDS011;9458;50.942;5.074;2022-07-29T03:18:24;3.47;;;2.40;;
18657;SDS011;9458;50.942;5.074;2022-07-29T03:20:52;2.92;;;2.35;;
18657;SDS011;9458;50.942;5.074;2022-07-29T03:23:21;2.50;;;2.30;;
18657;SDS011;9458;50.942;5.074;2022-07-29T03:25:51;4.47;;;2.40;;
18657;SDS011;9458;50.942;5.074;2022-07-29T03:28:19;4.88;;;2.30;;
18657;SDS011;9458;50.942;5.074;2022-07-29T03:30:49;3.45;;;2.25;;
18657;SDS011;9458;50.942;5.074;2022-07-29T03:33:18;6.00;;;2.35;;
18657;SDS011;9458;50.942;5.074;2022-07-29T03:35:46;3.92;;;2.30;;
18657;SDS011;9458;50.942;5.074;2022-07-29T03:38:14;3.33;;;2.40;;
18657;SDS011;9458;50.942;5.074;2022-07-29T03:40:42;3.47;;;2.30;;
18657;SDS011;9458;50.942;5.074;2022-07-29T03:43:15;2.70;;;2.28;;
18657;SDS011;9458;50.942;5.074;2022-07-29T03:45:47;4.82;;;2.60;;
18657;SDS011;9458;50.942;5.074;2022-07-29T03:48:21;2.42;;;2.08;;
18657;SDS011;9458;50.942;5.074;2022-07-29T03:50:50;2.92;;;2.35;;
18657;SDS011;9458;50.942;5.074;2022-07-29T03:53:18;3.83;;;2.35;;
18657;SDS011;9458;50.942;5.074;2022-07-29T03:55:46;4.07;;;2.42;;
18657;SDS011;9458;50.942;5.074;2022-07-29T03:58:17;6.57;;;3.15;;
18657;SDS011;9458;50.942;5.074;2022-07-29T04:00:45;3.25;;;2.42;;
18657;SDS011;9458;50.942;5.074;2022-07-29T04:03:14;5.07;;;2.78;;
18657;SDS011;9458;50.942;5.074;2022-07-29T04:05:42;3.88;;;2.80;;
18657;SDS011;9458;50.942;5.074;2022-07-29T04:08:10;3.33;;;2.92;;
18657;SDS011;9458;50.942;5.074;2022-07-29T04:10:38;4.32;;;2.97;;
18657;SDS011;9458;50.942;5.074;2022-07-29T04:13:06;3.90;;;2.95;;
18657;SDS011;9458;50.942;5.074;2022-07-29T04:15:34;5.72;;;3.10;;
18657;SDS011;9458;50.942;5.074;2022-07-29T04:18:01;3.65;;;3.20;;
18657;SDS011;9458;50.942;5.074;2022-07-29T04:20:28;4.18;;;3.03;;
18657;SDS011;9458;50.942;5.074;2022-07-29T04:22:58;5.88;;;3.00;;
18657;SDS011;9458;50.942;5.074;2022-07-29T04:25:25;4.32;;;3.25;;
18657;SDS011;9458;50.942;5.074;2022-07-29T04:27:53;4.30;;;3.10;;
18657;SDS011;9458;50.942;5.074;2022-07-29T04:30:26;7.35;;;3.13;;
18657;SDS011;9458;50.942;5.074;2022-07-29T04:32:54;4.55;;;3.30;;
18657;SDS011;9458;50.942;5.074;2022-07-29T04:35:21;4.03;;;3.30;;
18657;SDS011;9458;50.942;5.074;2022-07-29T04:37:50;4.63;;;3.00;;
18657;SDS011;9458;50.942;5.074;2022-07-29T04:40:19;4.80;;;2.92;;
18657;SDS011;9458;50.942;5.074;2022-07-29T04:42:47;4.50;;;3.30;;
18657;SDS011;9458;50.942;5.074;2022-07-29T04:45:15;4.03;;;3.10;;
18657;SDS011;9458;50.942;5.074;2022-07-29T04:47:43;5.05;;;3.03;;
18657;SDS011;9458;50.942;5.074;2022-07-29T04:50:12;4.30;;;3.17;;
18657;SDS011;9458;50.942;5.074;2022-07-29T04:52:39;3.95;;;3.22;;
18657;SDS011;9458;50.942;5.074;2022-07-29T04:55:07;3.60;;;3.30;;
18657;SDS011;9458;50.942;5.074;2022-07-29T04:57:36;5.30;;;2.92;;
18657;SDS011;9458;50.942;5.074;2022-07-29T05:00:05;6.00;;;3.30;;
18657;SDS011;9458;50.942;5.074;2022-07-29T05:02:33;5.57;;;4.18;;
18657;SDS011;9458;50.942;5.074;2022-07-29T05:05:00;3.50;;;3.17;;
18657;SDS011;9458;50.942;5.074;2022-07-29T05:07:28;3.33;;;3.03;;
18657;SDS011;9458;50.942;5.074;2022-07-29T05:09:55;3.60;;;2.88;;
18657;SDS011;9458;50.942;5.074;2022-07-29T05:12:23;4.30;;;2.97;;
18657;SDS011;9458;50.942;5.074;2022-07-29T05:14:52;5.45;;;3.50;;
18657;SDS011;9458;50.942;5.074;2022-07-29T05:17:20;4.40;;;4.00;;
18657;SDS011;9458;50.942;5.074;2022-07-29T05:19:47;4.20;;;3.25;;
18657;SDS011;9458;50.942;5.074;2022-07-29T05:22:16;7.05;;;3.45;;
18657;SDS011;9458;50.942;5.074;2022-07-29T05:24:44;4.35;;;3.53;;
18657;SDS011;9458;50.942;5.074;2022-07-29T05:27:12;5.07;;;3.50;;
18657;SDS011;9458;50.942;5.074;2022-07-29T05:29:39;3.58;;;3.28;;
18657;SDS011;9458;50.942;5.074;2022-07-29T05:32:09;3.40;;;3.13;;
18657;SDS011;9458;50.942;5.074;2022-07-29T05:34:37;4.40;;;3.75;;
18657;SDS011;9458;50.942;5.074;2022-07-29T05:37:04;4.65;;;3.65;;
18657;SDS011;9458;50.942;5.074;2022-07-29T05:39:32;5.15;;;3.70;;
18657;SDS011;9458;50.942;5.074;2022-07-29T05:42:00;4.07;;;3.20;;
18657;SDS011;9458;50.942;5.074;2022-07-29T05:44:27;4.22;;;3.60;;
18657;SDS011;9458;50.942;5.074;2022-07-29T05:46:55;4.50;;;4.05;;
18657;SDS011;9458;50.942;5.074;2022-07-29T05:49:23;5.63;;;3.78;;
18657;SDS011;9458;50.942;5.074;2022-07-29T05:51:51;4.70;;;3.90;;
18657;SDS011;9458;50.942;5.074;2022-07-29T05:54:18;4.75;;;4.20;;
18657;SDS011;9458;50.942;5.074;2022-07-29T05:56:46;4.07;;;3.70;;
18657;SDS011;9458;50.942;5.074;2022-07-29T05:59:13;4.50;;;3.42;;
18657;SDS011;9458;50.942;5.074;2022-07-29T06:01:41;3.92;;;3.53;;
18657;SDS011;9458;50.942;5.074;2022-07-29T06:04:09;4.63;;;3.90;;
18657;SDS011;9458;50.942;5.074;2022-07-29T06:06:39;4.28;;;3.97;;
18657;SDS011;9458;50.942;5.074;2022-07-29T06:09:07;4.40;;;4.00;;
18657;SDS011;9458;50.942;5.074;2022-07-29T06:11:34;5.72;;;3.70;;
18657;SDS011;9458;50.942;5.074;2022-07-29T06:14:02;4.22;;;3.67;;
18657;SDS011;9458;50.942;5.074;2022-07-29T06:16:30;6.40;;;3.63;;
18657;SDS011;9458;50.942;5.074;2022-07-29T06:18:57;4.22;;;3.72;;
18657;SDS011;9458;50.942;5.074;2022-07-29T06:21:25;5.05;;;3.67;;
18657;SDS011;9458;50.942;5.074;2022-07-29T06:23:54;8.10;;;3.83;;
18657;SDS011;9458;50.942;5.074;2022-07-29T06:26:22;4.47;;;3.80;;
18657;SDS011;9458;50.942;5.074;2022-07-29T06:28:49;3.80;;;3.47;;
18657;SDS011;9458;50.942;5.074;2022-07-29T06:31:17;4.43;;;3.63;;
18657;SDS011;9458;50.942;5.074;2022-07-29T06:33:45;4.15;;;3.60;;
18657;SDS011;9458;50.942;5.074;2022-07-29T06:36:13;4.63;;;3.60;;
18657;SDS011;9458;50.942;5.074;2022-07-29T06:38:40;4.00;;;3.60;;
18657;SDS011;9458;50.942;5.074;2022-07-29T06:41:09;5.30;;;3.50;;
18657;SDS011;9458;50.942;5.074;2022-07-29T06:43:38;5.80;;;3.67;;
18657;SDS011;9458;50.942;5.074;2022-07-29T06:46:09;4.90;;;3.40;;
18657;SDS011;9458;50.942;5.074;2022-07-29T06:48:39;4.35;;;3.20;;
18657;SDS011;9458;50.942;5.074;2022-07-29T06:51:07;3.58;;;3.03;;
18657;SDS011;9458;50.942;5.074;2022-07-29T06:53:36;3.78;;;3.00;;
18657;SDS011;9458;50.942;5.074;2022-07-29T06:56:06;3.97;;;3.08;;
18657;SDS011;9458;50.942;5.074;2022-07-29T06:58:38;4.78;;;3.15;;
18657;SDS011;9458;50.942;5.074;2022-07-29T07:01:07;3.78;;;3.47;;
18657;SDS011;9458;50.942;5.074;2022-07-29T07:03:34;3.35;;;3.10;;
18657;SDS011;9458;50.942;5.074;2022-07-29T07:06:03;3.15;;;2.85;;
18657;SDS011;9458;50.942;5.074;2022-07-29T07:08:31;3.88;;;3.10;;
18657;SDS011;9458;50.942;5.074;2022-07-29T07:10:58;3.22;;;3.03;;
18657;SDS011;9458;50.942;5.074;2022-07-29T07:13:26;3.38;;;3.10;;
18657;SDS011;9458;50.942;5.074;2022-07-29T07:16:00;5.22;;;3.13;;
18657;SDS011;9458;50.942;5.074;2022-07-29T07:18:28;3.97;;;2.92;;
18657;SDS011;9458;50.942;5.074;2022-07-29T07:20:56;3.63;;;3.33;;
18657;SDS011;9458;50.942;5.074;2022-07-29T07:23:24;3.63;;;3.33;;
18657;SDS011;9458;50.942;5.074;2022-07-29T07:25:52;3.88;;;3.00;;
18657;SDS011;9458;50.942;5.074;2022-07-29T07:28:19;3.83;;;3.25;;
18657;SDS011;9458;50.942;5.074;2022-07-29T07:30:48;10.82;;;5.75;;
18657;SDS011;9458;50.942;5.074;2022-07-29T07:33:18;3.45;;;3.15;;
18657;SDS011;9458;50.942;5.074;2022-07-29T07:35:46;3.33;;;3.03;;
18657;SDS011;9458;50.942;5.074;2022-07-29T07:38:16;21.15;;;8.32;;
18657;SDS011;9458;50.942;5.074;2022-07-29T07:40:43;3.90;;;3.60;;
18657;SDS011;9458;50.942;5.074;2022-07-29T07:43:12;3.78;;;3.13;;
18657;SDS011;9458;50.942;5.074;2022-07-29T07:45:40;3.67;;;3.17;;
18657;SDS011;9458;50.942;5.074;2022-07-29T07:48:08;3.90;;;2.92;;
18657;SDS011;9458;50.942;5.074;2022-07-29T07:50:38;3.30;;;3.10;;
18657;SDS011;9458;50.942;5.074;2022-07-29T07:53:09;3.30;;;3.10;;
18657;SDS011;9458;50.942;5.074;2022-07-29T07:55:39;3.10;;;2.90;;
18657;SDS011;9458;50.942;5.074;2022-07-29T07:58:06;3.15;;;2.90;;
18657;SDS011;9458;50.942;5.074;2022-07-29T08:00:34;3.03;;;2.80;;
18657;SDS011;9458;50.942;5.074;2022-07-29T08:03:03;3.42;;;3.08;;
18657;SDS011;9458;50.942;5.074;2022-07-29T08:05:30;3.40;;;3.10;;
18657;SDS011;9458;50.942;5.074;2022-07-29T08:08:00;3.70;;;3.30;;
18657;SDS011;9458;50.942;5.074;2022-07-29T08:10:27;3.15;;;2.85;;
18657;SDS011;9458;50.942;5.074;2022-07-29T08:13:11;3.85;;;2.78;;
18657;SDS011;9458;50.942;5.074;2022-07-29T08:15:39;3.40;;;3.10;;
18657;SDS011;9458;50.942;5.074;2022-07-29T08:18:08;3.53;;;2.80;;
18657;SDS011;9458;50.942;5.074;2022-07-29T08:20:36;4.03;;;3.20;;
18657;SDS011;9458;50.942;5.074;2022-07-29T08:23:06;3.40;;;3.20;;
18657;SDS011;9458;50.942;5.074;2022-07-29T08:25:35;3.20;;;3.00;;
18657;SDS011;9458;50.942;5.074;2022-07-29T08:28:05;2.78;;;2.60;;
18657;SDS011;9458;50.942;5.074;2022-07-29T08:30:33;3.28;;;2.97;;
18657;SDS011;9458;50.942;5.074;2022-07-29T08:33:03;3.75;;;2.80;;
18657;SDS011;9458;50.942;5.074;2022-07-29T08:35:30;4.00;;;3.60;;
18657;SDS011;9458;50.942;5.074;2022-07-29T08:37:58;4.75;;;3.15;;
18657;SDS011;9458;50.942;5.074;2022-07-29T08:40:27;3.97;;;3.45;;
18657;SDS011;9458;50.942;5.074;2022-07-29T08:42:54;3.72;;;3.42;;
18657;SDS011;9458;50.942;5.074;2022-07-29T08:45:22;3.90;;;3.60;;
18657;SDS011;9458;50.942;5.074;2022-07-29T08:47:51;3.63;;;3.33;;
18657;SDS011;9458;50.942;5.074;2022-07-29T08:50:19;3.80;;;3.53;;
18657;SDS011;9458;50.942;5.074;2022-07-29T08:52:46;4.85;;;3.25;;
18657;SDS011;9458;50.942;5.074;2022-07-29T08:55:16;3.67;;;3.38;;
18657;SDS011;9458;50.942;5.074;2022-07-29T08:57:46;3.40;;;3.10;;
18657;SDS011;9458;50.942;5.074;2022-07-29T09:00:14;3.47;;;3.17;;
18657;SDS011;9458;50.942;5.074;2022-07-29T09:02:44;3.58;;;3.38;;
18657;SDS011;9458;50.942;5.074;2022-07-29T09:05:14;3.17;;;2.97;;
18657;SDS011;9458;50.942;5.074;2022-07-29T09:07:42;3.42;;;3.13;;
18657;SDS011;9458;50.942;5.074;2022-07-29T09:10:13;3.20;;;3.00;;
18657;SDS011;9458;50.942;5.074;2022-07-29T09:12:40;3.10;;;2.80;;
18657;SDS011;9458;50.942;5.074;2022-07-29T09:15:09;3.78;;;3.47;;
18657;SDS011;9458;50.942;5.074;2022-07-29T09:17:41;3.45;;;3.15;;
18657;SDS011;9458;50.942;5.074;2022-07-29T09:20:10;3.50;;;3.20;;
18657;SDS011;9458;50.942;5.074;2022-07-29T09:22:39;3.17;;;2.97;;
18657;SDS011;9458;50.942;5.074;2022-07-29T09:25:07;3.42;;;3.22;;
18657;SDS011;9458;50.942;5.074;2022-07-29T09:27:34;3.85;;;3.42;;
18657;SDS011;9458;50.942;5.074;2022-07-29T09:30:02;3.53;;;3.28;;
18657;SDS011;9458;50.942;5.074;2022-07-29T09:32:33;3.70;;;3.40;;
18657;SDS011;9458;50.942;5.074;2022-07-29T09:35:20;3.35;;;2.90;;
18657;SDS011;9458;50.942;5.074;2022-07-29T09:37:53;3.28;;;2.92;;
18657;SDS011;9458;50.942;5.074;2022-07-29T09:40:21;3.30;;;3.00;;
18657;SDS011;9458;50.942;5.074;2022-07-29T09:42:50;8.63;;;3.95;;
18657;SDS011;9458;50.942;5.074;2022-07-29T09:45:30;3.08;;;2.72;;
18657;SDS011;9458;50.942;5.074;2022-07-29T09:48:12;2.83;;;2.63;;
18657;SDS011;9458;50.942;5.074;2022-07-29T09:50:41;2.80;;;2.60;;
18657;SDS011;9458;50.942;5.074;2022-07-29T09:53:10;4.43;;;3.42;;
18657;SDS011;9458;50.942;5.074;2022-07-29T09:55:45;3.30;;;2.80;;
18657;SDS011;9458;50.942;5.074;2022-07-29T09:58:15;2.75;;;2.55;;
18657;SDS011;9458;50.942;5.074;2022-07-29T10:00:43;2.58;;;2.38;;
18657;SDS011;9458;50.942;5.074;2022-07-29T10:03:13;2.88;;;2.67;;
18657;SDS011;9458;50.942;5.074;2022-07-29T10:05:41;3.75;;;3.15;;
18657;SDS011;9458;50.942;5.074;2022-07-29T10:08:10;2.88;;;2.60;;
18657;SDS011;9458;50.942;5.074;2022-07-29T10:10:39;2.70;;;2.50;;
18657;SDS011;9458;50.942;5.074;2022-07-29T10:13:10;2.70;;;2.50;;
18657;SDS011;9458;50.942;5.074;2022-07-29T10:15:40;2.05;;;1.80;;
18657;SDS011;9458;50.942;5.074;2022-07-29T10:18:10;2.05;;;1.77;;
18657;SDS011;9458;50.942;5.074;2022-07-29T10:20:40;2.45;;;1.88;;
18657;SDS011;9458;50.942;5.074;2022-07-29T10:23:08;2.58;;;2.20;;
18657;SDS011;9458;50.942;5.074;2022-07-29T10:25:36;2.30;;;2.10;;
18657;SDS011;9458;50.942;5.074;2022-07-29T10:28:05;2.30;;;2.10;;
18657;SDS011;9458;50.942;5.074;2022-07-29T10:30:32;2.13;;;1.92;;
18657;SDS011;9458;50.942;5.074;2022-07-29T10:33:06;2.58;;;2.22;;
18657;SDS011;9458;50.942;5.074;2022-07-29T10:36:04;2.80;;;2.10;;
18657;SDS011;9458;50.942;5.074;2022-07-29T10:38:47;2.00;;;1.90;;
18657;SDS011;9458;50.942;5.074;2022-07-29T10:41:29;2.97;;;2.40;;
18657;SDS011;9458;50.942;5.074;2022-07-29T10:44:16;3.67;;;2.35;;
18657;SDS011;9458;50.942;5.074;2022-07-29T10:46:48;2.38;;;1.90;;
18657;SDS011;9458;50.942;5.074;2022-07-29T10:49:17;2.80;;;2.50;;
18657;SDS011;9458;50.942;5.074;2022-07-29T10:52:01;2.15;;;1.70;;
18657;SDS011;9458;50.942;5.074;2022-07-29T10:57:22;2.38;;;2.17;;
18657;SDS011;9458;50.942;5.074;2022-07-29T11:02:53;2.83;;;2.53;;
18657;SDS011;9458;50.942;5.074;2022-07-29T11:05:23;2.58;;;2.20;;
18657;SDS011;9458;50.942;5.074;2022-07-29T11:10:53;2.55;;;2.35;;
18657;SDS011;9458;50.942;5.074;2022-07-29T11:14:02;2.92;;;2.45;;
18657;SDS011;9458;50.942;5.074;2022-07-29T11:19:40;3.92;;;2.97;;
18657;SDS011;9458;50.942;5.074;2022-07-29T11:22:08;3.70;;;2.13;;
18657;SDS011;9458;50.942;5.074;2022-07-29T11:24:38;3.25;;;2.90;;
18657;SDS011;9458;50.942;5.074;2022-07-29T11:27:09;4.85;;;2.80;;
18657;SDS011;9458;50.942;5.074;2022-07-29T11:29:51;3.17;;;2.88;;
18657;SDS011;9458;50.942;5.074;2022-07-29T11:32:20;3.15;;;2.70;;
18657;SDS011;9458;50.942;5.074;2022-07-29T11:34:49;3.35;;;2.40;;
18657;SDS011;9458;50.942;5.074;2022-07-29T11:37:37;3.95;;;2.92;;
18657;SDS011;9458;50.942;5.074;2022-07-29T11:40:10;3.03;;;2.58;;
18657;SDS011;9458;50.942;5.074;2022-07-29T11:42:40;2.88;;;2.67;;
18657;SDS011;9458;50.942;5.074;2022-07-29T11:45:26;2.80;;;2.60;;
18657;SDS011;9458;50.942;5.074;2022-07-29T11:48:16;2.60;;;2.40;;
18657;SDS011;9458;50.942;5.074;2022-07-29T11:50:44;3.35;;;2.15;;
18657;SDS011;9458;50.942;5.074;2022-07-29T11:53:12;2.28;;;2.10;;
18657;SDS011;9458;50.942;5.074;2022-07-29T11:55:42;2.70;;;2.20;;
18657;SDS011;9458;50.942;5.074;2022-07-29T11:58:10;2.30;;;2.17;;
18657;SDS011;9458;50.942;5.074;2022-07-29T12:00:38;3.90;;;2.15;;
18657;SDS011;9458;50.942;5.074;2022-07-29T12:03:08;2.20;;;2.10;;
18657;SDS011;9458;50.942;5.074;2022-07-29T12:05:38;2.00;;;1.70;;
18657;SDS011;9458;50.942;5.074;2022-07-29T12:08:09;2.30;;;2.10;;
18657;SDS011;9458;50.942;5.074;2022-07-29T12:10:43;2.65;;;1.95;;
18657;SDS011;9458;50.942;5.074;2022-07-29T12:13:11;2.40;;;1.90;;
18657;SDS011;9458;50.942;5.074;2022-07-29T12:15:40;1.95;;;1.77;;
18657;SDS011;9458;50.942;5.074;2022-07-29T12:18:10;2.60;;;2.15;;
18657;SDS011;9458;50.942;5.074;2022-07-29T12:20:41;2.83;;;1.98;;
18657;SDS011;9458;50.942;5.074;2022-07-29T12:23:09;2.00;;;1.80;;
18657;SDS011;9458;50.942;5.074;2022-07-29T12:25:39;1.85;;;1.75;;
18657;SDS011;9458;50.942;5.074;2022-07-29T12:28:13;2.25;;;2.05;;
18657;SDS011;9458;50.942;5.074;2022-07-29T12:30:48;3.65;;;2.60;;
18657;SDS011;9458;50.942;5.074;2022-07-29T12:33:17;2.05;;;1.90;;
18657;SDS011;9458;50.942;5.074;2022-07-29T12:35:48;2.85;;;2.20;;
18657;SDS011;9458;50.942;5.074;2022-07-29T12:38:17;2.20;;;1.90;;
18657;SDS011;9458;50.942;5.074;2022-07-29T12:40:45;2.60;;;2.00;;
18657;SDS011;9458;50.942;5.074;2022-07-29T12:43:16;2.30;;;2.10;;
18657;SDS011;9458;50.942;5.074;2022-07-29T12:45:45;3.35;;;2.20;;
18657;SDS011;9458;50.942;5.074;2022-07-29T12:48:15;2.08;;;1.98;;
18657;SDS011;9458;50.942;5.074;2022-07-29T12:50:53;2.15;;;1.77;;
18657;SDS011;9458;50.942;5.074;2022-07-29T12:53:21;3.28;;;2.10;;
18657;SDS011;9458;50.942;5.074;2022-07-29T12:55:49;1.90;;;1.80;;
18657;SDS011;9458;50.942;5.074;2022-07-29T12:58:29;2.90;;;1.70;;
18657;SDS011;9458;50.942;5.074;2022-07-29T13:01:02;5.82;;;2.10;;
18657;SDS011;9458;50.942;5.074;2022-07-29T13:03:42;2.55;;;2.15;;
18657;SDS011;9458;50.942;5.074;2022-07-29T13:06:26;2.25;;;2.00;;
18657;SDS011;9458;50.942;5.074;2022-07-29T13:09:05;2.40;;;2.20;;
18657;SDS011;9458;50.942;5.074;2022-07-29T13:12:05;2.38;;;2.13;;
18657;SDS011;9458;50.942;5.074;2022-07-29T13:14:37;2.20;;;2.05;;
18657;SDS011;9458;50.942;5.074;2022-07-29T13:17:06;3.05;;;2.47;;
18657;SDS011;9458;50.942;5.074;2022-07-29T13:19:36;2.15;;;1.90;;
18657;SDS011;9458;50.942;5.074;2022-07-29T13:22:06;2.95;;;2.10;;
18657;SDS011;9458;50.942;5.074;2022-07-29T13:24:33;2.35;;;2.20;;
18657;SDS011;9458;50.942;5.074;2022-07-29T13:27:11;2.35;;;2.15;;
18657;SDS011;9458;50.942;5.074;2022-07-29T13:29:42;2.40;;;2.20;;
18657;SDS011;9458;50.942;5.074;2022-07-29T13:32:10;2.78;;;1.80;;
18657;SDS011;9458;50.942;5.074;2022-07-29T13:34:38;2.88;;;2.05;;
18657;SDS011;9458;50.942;5.074;2022-07-29T13:37:06;5.05;;;2.10;;
18657;SDS011;9458;50.942;5.074;2022-07-29T13:39:34;2.50;;;2.20;;
18657;SDS011;9458;50.942;5.074;2022-07-29T13:42:02;2.80;;;1.83;;
18657;SDS011;9458;50.942;5.074;2022-07-29T13:44:30;3.20;;;1.92;;
18657;SDS011;9458;50.942;5.074;2022-07-29T13:46:59;4.80;;;2.10;;
18657;SDS011;9458;50.942;5.074;2022-07-29T13:49:27;2.08;;;1.92;;
18657;SDS011;9458;50.942;5.074;2022-07-29T13:51:55;5.38;;;2.05;;
18657;SDS011;9458;50.942;5.074;2022-07-29T13:54:23;3.90;;;2.10;;
18657;SDS011;9458;50.942;5.074;2022-07-29T13:56:50;1.95;;;1.85;;
18657;SDS011;9458;50.942;5.074;2022-07-29T13:59:18;2.53;;;2.25;;
18657;SDS011;9458;50.942;5.074;2022-07-29T14:01:45;4.13;;;2.40;;
18657;SDS011;9458;50.942;5.074;2022-07-29T14:04:14;4.05;;;2.25;;
18657;SDS011;9458;50.942;5.074;2022-07-29T14:06:41;4.93;;;1.90;;
18657;SDS011;9458;50.942;5.074;2022-07-29T14:09:09;2.65;;;2.03;;
18657;SDS011;9458;50.942;5.074;2022-07-29T14:11:36;2.92;;;2.20;;
18657;SDS011;9458;50.942;5.074;2022-07-29T14:14:05;3.65;;;2.03;;
18657;SDS011;9458;50.942;5.074;2022-07-29T14:16:32;2.47;;;2.05;;
18657;SDS011;9458;50.942;5.074;2022-07-29T14:19:00;3.25;;;2.08;;
18657;SDS011;9458;50.942;5.074;2022-07-29T14:21:29;2.38;;;2.17;;
18657;SDS011;9458;50.942;5.074;2022-07-29T14:23:57;5.78;;;1.95;;
18657;SDS011;9458;50.942;5.074;2022-07-29T14:26:24;1.92;;;1.80;;
18657;SDS011;9458;50.942;5.074;2022-07-29T14:28:52;3.30;;;2.22;;
18657;SDS011;9458;50.942;5.074;2022-07-29T14:31:19;4.15;;;1.90;;
18657;SDS011;9458;50.942;5.074;2022-07-29T14:33:47;3.55;;;2.28;;
18657;SDS011;9458;50.942;5.074;2022-07-29T14:36:14;2.92;;;1.98;;
18657;SDS011;9458;50.942;5.074;2022-07-29T14:38:43;3.25;;;2.08;;
18657;SDS011;9458;50.942;5.074;2022-07-29T14:41:11;3.00;;;2.30;;
18657;SDS011;9458;50.942;5.074;2022-07-29T14:43:38;3.15;;;1.88;;
18657;SDS011;9458;50.942;5.074;2022-07-29T14:46:06;3.35;;;2.00;;
18657;SDS011;9458;50.942;5.074;2022-07-29T14:48:34;2.20;;;2.00;;
18657;SDS011;9458;50.942;5.074;2022-07-29T14:51:01;2.00;;;1.90;;
18657;SDS011;9458;50.942;5.074;2022-07-29T14:53:29;1.95;;;1.80;;
18657;SDS011;9458;50.942;5.074;2022-07-29T14:55:57;2.75;;;2.00;;
18657;SDS011;9458;50.942;5.074;2022-07-29T14:58:25;3.20;;;1.90;;
18657;SDS011;9458;50.942;5.074;2022-07-29T15:00:53;2.40;;;2.20;;
18657;SDS011;9458;50.942;5.074;2022-07-29T15:03:21;2.67;;;2.00;;
18657;SDS011;9458;50.942;5.074;2022-07-29T15:05:49;4.18;;;2.15;;
18657;SDS011;9458;50.942;5.074;2022-07-29T15:08:17;2.88;;;2.00;;
18657;SDS011;9458;50.942;5.074;2022-07-29T15:10:44;2.40;;;2.20;;
18657;SDS011;9458;50.942;5.074;2022-07-29T15:13:13;3.10;;;2.10;;
18657;SDS011;9458;50.942;5.074;2022-07-29T15:15:41;1.90;;;1.80;;
18657;SDS011;9458;50.942;5.074;2022-07-29T15:18:11;2.15;;;1.95;;
18657;SDS011;9458;50.942;5.074;2022-07-29T15:20:38;3.13;;;2.83;;
18657;SDS011;9458;50.942;5.074;2022-07-29T15:23:05;2.50;;;2.15;;
18657;SDS011;9458;50.942;5.074;2022-07-29T15:25:34;3.80;;;2.45;;
18657;SDS011;9458;50.942;5.074;2022-07-29T15:28:02;2.75;;;1.92;;
18657;SDS011;9458;50.942;5.074;2022-07-29T15:30:34;1.95;;;1.85;;
18657;SDS011;9458;50.942;5.074;2022-07-29T15:33:05;2.50;;;2.30;;